sensor_id;sensor_type;location;lat;lon;timestamp;pressure;altitude;pressure_sealevel;temperature;humidity
30856;BME280;17570;0.000;0.000;2023-05-12T00:00:00;97204.69;;;20.43;38.33
30856;BME280;17570;0.000;0.000;2023-05-12T00:02:30;97206.66;;;20.41;38.23
30856;BME280;17570;0.000;0.000;2023-05-12T00:04:58;97202.39;;;20.40;38.14
30856;BME280;17570;0.000;0.000;2023-05-12T00:07:25;97201.58;;;20.39;38.33
30856;BME280;17570;0.000;0.000;2023-05-12T00:09:53;97193.00;;;20.37;38.42
30856;BME280;17570;0.000;0.000;2023-05-12T00:12:20;97186.28;;;20.35;38.53
30856;BME280;17570;0.000;0.000;2023-05-12T00:14:48;97182.17;;;20.32;38.58
30856;BME280;17570;0.000;0.000;2023-05-12T00:17:15;97182.99;;;20.33;38.42
30856;BME280;17570;0.000;0.000;2023-05-12T00:19:43;97186.28;;;20.35;38.66
30856;BME280;17570;0.000;0.000;2023-05-12T00:22:10;97191.75;;;20.33;38.46
30856;BME280;17570;0.000;0.000;2023-05-12T00:24:38;97192.28;;;20.29;38.23
30856;BME280;17570;0.000;0.000;2023-05-12T00:27:05;97187.01;;;20.29;38.36
30856;BME280;17570;0.000;0.000;2023-05-12T00:29:33;97182.36;;;20.31;38.02
30856;BME280;17570;0.000;0.000;2023-05-12T00:32:02;97191.09;;;20.31;38.17
30856;BME280;17570;0.000;0.000;2023-05-12T00:34:30;97186.63;;;20.32;38.28
30856;BME280;17570;0.000;0.000;2023-05-12T00:36:57;97180.55;;;20.31;38.17
30856;BME280;17570;0.000;0.000;2023-05-12T00:39:25;97185.81;;;20.31;38.35
30856;BME280;17570;0.000;0.000;2023-05-12T00:41:56;97187.64;;;20.31;38.45
30856;BME280;17570;0.000;0.000;2023-05-12T00:44:23;97185.00;;;20.31;38.87
30856;BME280;17570;0.000;0.000;2023-05-12T00:46:51;97188.36;;;20.25;38.90
30856;BME280;17570;0.000;0.000;2023-05-12T00:49:19;97180.89;;;20.28;39.01
30856;BME280;17570;0.000;0.000;2023-05-12T00:51:47;97182.70;;;20.28;38.86
30856;BME280;17570;0.000;0.000;2023-05-12T00:54:15;97196.55;;;20.30;39.01
30856;BME280;17570;0.000;0.000;2023-05-12T00:56:43;97188.17;;;20.26;38.58
30856;BME280;17570;0.000;0.000;2023-05-12T00:59:11;97182.42;;;20.23;38.83
30856;BME280;17570;0.000;0.000;2023-05-12T01:01:40;97192.97;;;20.23;38.85
30856;BME280;17570;0.000;0.000;2023-05-12T01:04:08;97188.70;;;20.22;39.24
30856;BME280;17570;0.000;0.000;2023-05-12T01:09:09;97194.63;;;20.24;38.97
30856;BME280;17570;0.000;0.000;2023-05-12T01:11:37;97184.77;;;20.18;39.30
30856;BME280;17570;0.000;0.000;2023-05-12T01:14:05;97191.67;;;20.19;39.18
30856;BME280;17570;0.000;0.000;2023-05-12T01:16:38;97195.98;;;20.20;38.97
30856;BME280;17570;0.000;0.000;2023-05-12T01:19:06;97190.23;;;20.16;39.11
30856;BME280;17570;0.000;0.000;2023-05-12T01:21:36;97194.02;;;20.13;39.46
30856;BME280;17570;0.000;0.000;2023-05-12T01:24:05;97196.37;;;20.08;38.82
30856;BME280;17570;0.000;0.000;2023-05-12T01:26:33;97194.55;;;20.09;38.80
30856;BME280;17570;0.000;0.000;2023-05-12T01:29:01;97197.38;;;20.07;38.75
30856;BME280;17570;0.000;0.000;2023-05-12T01:31:30;97208.92;;;20.06;39.03
30856;BME280;17570;0.000;0.000;2023-05-12T01:33:58;97207.28;;;20.05;38.64
30856;BME280;17570;0.000;0.000;2023-05-12T01:36:26;97200.34;;;20.04;38.88
30856;BME280;17570;0.000;0.000;2023-05-12T01:38:54;97205.99;;;20.01;38.66
30856;BME280;17570;0.000;0.000;2023-05-12T01:41:22;97206.14;;;20.00;38.82
30856;BME280;17570;0.000;0.000;2023-05-12T01:43:50;97203.70;;;19.98;38.89
30856;BME280;17570;0.000;0.000;2023-05-12T01:46:17;97198.61;;;19.97;38.76
30856;BME280;17570;0.000;0.000;2023-05-12T01:48:45;97199.77;;;19.94;38.81
30856;BME280;17570;0.000;0.000;2023-05-12T01:51:12;97204.41;;;19.92;38.73
30856;BME280;17570;0.000;0.000;2023-05-12T01:53:40;97205.41;;;19.91;38.89
30856;BME280;17570;0.000;0.000;2023-05-12T01:56:07;97203.30;;;19.86;38.95
30856;BME280;17570;0.000;0.000;2023-05-12T01:58:36;97193.58;;;19.87;38.90
30856;BME280;17570;0.000;0.000;2023-05-12T02:01:03;97197.55;;;19.83;38.94
30856;BME280;17570;0.000;0.000;2023-05-12T02:03:31;97203.30;;;19.86;38.95
30856;BME280;17570;0.000;0.000;2023-05-12T02:05:58;97204.45;;;19.84;38.98
30856;BME280;17570;0.000;0.000;2023-05-12T02:08:26;97201.19;;;19.82;38.84
30856;BME280;17570;0.000;0.000;2023-05-12T02:11:06;97205.45;;;19.83;38.79
30856;BME280;17570;0.000;0.000;2023-05-12T02:13:34;97203.16;;;19.80;38.88
30856;BME280;17570;0.000;0.000;2023-05-12T02:16:02;97207.02;;;19.69;39.16
30856;BME280;17570;0.000;0.000;2023-05-12T02:18:30;97204.37;;;19.69;39.14
30856;BME280;17570;0.000;0.000;2023-05-12T02:20:58;97203.37;;;19.70;39.20
30856;BME280;17570;0.000;0.000;2023-05-12T02:23:27;97206.64;;;19.72;39.06
30856;BME280;17570;0.000;0.000;2023-05-12T02:25:55;97207.83;;;19.70;38.99
30856;BME280;17570;0.000;0.000;2023-05-12T02:28:22;97202.08;;;19.66;38.95
30856;BME280;17570;0.000;0.000;2023-05-12T02:30:50;97205.71;;;19.65;38.72
30856;BME280;17570;0.000;0.000;2023-05-12T02:33:19;97211.80;;;19.66;38.70
30856;BME280;17570;0.000;0.000;2023-05-12T02:35:46;97211.50;;;19.60;39.08
30856;BME280;17570;0.000;0.000;2023-05-12T02:38:14;97206.38;;;19.59;38.88
30856;BME280;17570;0.000;0.000;2023-05-12T02:40:41;97207.53;;;19.56;38.72
30856;BME280;17570;0.000;0.000;2023-05-12T02:43:10;97207.53;;;19.56;38.88
30856;BME280;17570;0.000;0.000;2023-05-12T02:45:37;97213.98;;;19.54;38.93
30856;BME280;17570;0.000;0.000;2023-05-12T02:48:05;97213.50;;;19.50;39.37
30856;BME280;17570;0.000;0.000;2023-05-12T02:50:33;97216.28;;;19.49;38.58
30856;BME280;17570;0.000;0.000;2023-05-12T02:53:00;97218.91;;;19.49;38.99
30856;BME280;17570;0.000;0.000;2023-05-12T02:55:28;97218.91;;;19.49;38.79
30856;BME280;17570;0.000;0.000;2023-05-12T02:57:55;97221.91;;;19.46;39.09
30856;BME280;17570;0.000;0.000;2023-05-12T03:00:23;97221.42;;;19.42;38.75
30856;BME280;17570;0.000;0.000;2023-05-12T03:02:51;97226.87;;;19.41;38.74
30856;BME280;17570;0.000;0.000;2023-05-12T03:05:19;97226.20;;;19.38;39.55
30856;BME280;17570;0.000;0.000;2023-05-12T03:07:47;97233.47;;;19.36;38.69
30856;BME280;17570;0.000;0.000;2023-05-12T03:10:16;97239.55;;;19.37;39.01
30856;BME280;17570;0.000;0.000;2023-05-12T03:12:43;97231.16;;;19.33;39.16
30856;BME280;17570;0.000;0.000;2023-05-12T03:15:11;97238.57;;;19.30;38.81
30856;BME280;17570;0.000;0.000;2023-05-12T03:17:38;97238.75;;;19.28;38.83
30856;BME280;17570;0.000;0.000;2023-05-12T03:20:06;97237.94;;;19.28;38.95
30856;BME280;17570;0.000;0.000;2023-05-12T03:22:35;97233.30;;;19.30;39.06
30856;BME280;17570;0.000;0.000;2023-05-12T03:25:03;97239.92;;;19.26;39.03
30856;BME280;17570;0.000;0.000;2023-05-12T03:27:31;97246.16;;;19.25;39.11
30856;BME280;17570;0.000;0.000;2023-05-12T03:29:59;97244.52;;;19.24;39.17
30856;BME280;17570;0.000;0.000;2023-05-12T03:32:26;97245.52;;;19.23;38.83
30856;BME280;17570;0.000;0.000;2023-05-12T03:34:58;97253.59;;;19.21;39.20
30856;BME280;17570;0.000;0.000;2023-05-12T03:37:27;97249.30;;;19.20;39.20
30856;BME280;17570;0.000;0.000;2023-05-12T03:39:55;97250.11;;;19.21;39.33
30856;BME280;17570;0.000;0.000;2023-05-12T03:42:23;97252.74;;;19.21;39.44
30856;BME280;17570;0.000;0.000;2023-05-12T03:44:51;97261.48;;;19.21;38.92
30856;BME280;17570;0.000;0.000;2023-05-12T03:47:18;97259.67;;;19.22;38.89
30856;BME280;17570;0.000;0.000;2023-05-12T03:49:46;97266.26;;;19.18;38.93
30856;BME280;17570;0.000;0.000;2023-05-12T03:52:13;97270.34;;;19.20;39.16
30856;BME280;17570;0.000;0.000;2023-05-12T03:54:43;97270.84;;;19.24;39.96
30856;BME280;17570;0.000;0.000;2023-05-12T03:57:11;97280.69;;;19.30;41.60
30856;BME280;17570;0.000;0.000;2023-05-12T03:59:38;97282.81;;;19.34;41.81
30856;BME280;17570;0.000;0.000;2023-05-12T04:02:06;97286.44;;;19.33;41.34
30856;BME280;17570;0.000;0.000;2023-05-12T04:04:36;97291.52;;;19.35;41.06
30856;BME280;17570;0.000;0.000;2023-05-12T04:07:03;97287.92;;;19.36;41.03
30856;BME280;17570;0.000;0.000;2023-05-12T04:09:32;97283.30;;;19.38;40.59
30856;BME280;17570;0.000;0.000;2023-05-12T04:12:00;97291.38;;;19.36;40.44
30856;BME280;17570;0.000;0.000;2023-05-12T04:14:27;97301.55;;;19.40;40.41
30856;BME280;17570;0.000;0.000;2023-05-12T04:16:55;97295.95;;;19.43;40.17
30856;BME280;17570;0.000;0.000;2023-05-12T04:19:24;97296.77;;;19.43;40.21
30856;BME280;17570;0.000;0.000;2023-05-12T04:21:52;97296.77;;;19.43;40.39
30856;BME280;17570;0.000;0.000;2023-05-12T04:24:19;97298.41;;;19.44;40.31
30856;BME280;17570;0.000;0.000;2023-05-12T04:26:47;97298.26;;;19.46;40.15
30856;BME280;17570;0.000;0.000;2023-05-12T04:29:14;97295.63;;;19.46;40.07
30856;BME280;17570;0.000;0.000;2023-05-12T04:31:43;97299.08;;;19.46;40.03
30856;BME280;17570;0.000;0.000;2023-05-12T04:34:11;97301.20;;;19.51;40.11
30856;BME280;17570;0.000;0.000;2023-05-12T04:36:38;97303.80;;;19.67;41.63
30856;BME280;17570;0.000;0.000;2023-05-12T04:39:06;97300.50;;;19.73;41.65
30856;BME280;17570;0.000;0.000;2023-05-12T04:41:34;97305.58;;;19.75;41.27
30856;BME280;17570;0.000;0.000;2023-05-12T04:44:02;97306.41;;;19.75;40.91
30856;BME280;17570;0.000;0.000;2023-05-12T04:46:30;97300.13;;;19.76;40.53
30856;BME280;17570;0.000;0.000;2023-05-12T04:48:58;97308.85;;;19.77;40.00
30856;BME280;17570;0.000;0.000;2023-05-12T04:51:25;97301.80;;;19.77;39.71
30856;BME280;17570;0.000;0.000;2023-05-12T04:53:53;97308.03;;;19.76;39.39
30856;BME280;17570;0.000;0.000;2023-05-12T04:56:22;97304.58;;;19.76;39.04
30856;BME280;17570;0.000;0.000;2023-05-12T04:58:50;97306.22;;;19.77;39.08
30856;BME280;17570;0.000;0.000;2023-05-12T05:01:17;97315.12;;;19.76;39.13
30856;BME280;17570;0.000;0.000;2023-05-12T05:03:46;97303.58;;;19.77;39.10
30856;BME280;17570;0.000;0.000;2023-05-12T05:06:13;97313.97;;;19.78;38.95
30856;BME280;17570;0.000;0.000;2023-05-12T05:08:41;97307.70;;;19.79;39.17
30856;BME280;17570;0.000;0.000;2023-05-12T05:11:08;97308.52;;;19.80;39.42
30856;BME280;17570;0.000;0.000;2023-05-12T05:13:36;97309.83;;;19.84;38.92
30856;BME280;17570;0.000;0.000;2023-05-12T05:16:06;97311.45;;;19.85;38.70
30856;BME280;17570;0.000;0.000;2023-05-12T05:18:37;97310.64;;;19.84;39.45
30856;BME280;17570;0.000;0.000;2023-05-12T05:21:06;97307.49;;;19.89;38.46
30856;BME280;17570;0.000;0.000;2023-05-12T05:23:35;97313.76;;;19.88;38.27
30856;BME280;17570;0.000;0.000;2023-05-12T05:26:03;97316.22;;;19.90;38.14
30856;BME280;17570;0.000;0.000;2023-05-12T05:28:30;97315.70;;;19.94;38.31
30856;BME280;17570;0.000;0.000;2023-05-12T05:30:59;97316.00;;;19.99;37.92
30856;BME280;17570;0.000;0.000;2023-05-12T05:33:26;97309.73;;;20.00;38.03
30856;BME280;17570;0.000;0.000;2023-05-12T05:35:54;97317.12;;;20.05;38.22
30856;BME280;17570;0.000;0.000;2023-05-12T05:38:21;97317.12;;;20.05;38.06
30856;BME280;17570;0.000;0.000;2023-05-12T05:40:49;97314.97;;;20.08;37.52
30856;BME280;17570;0.000;0.000;2023-05-12T05:43:17;97315.27;;;20.13;37.72
30856;BME280;17570;0.000;0.000;2023-05-12T05:45:44;97314.93;;;20.17;37.46
30856;BME280;17570;0.000;0.000;2023-05-12T05:48:12;97307.50;;;20.20;37.68
30856;BME280;17570;0.000;0.000;2023-05-12T05:50:40;97310.95;;;20.21;37.56
30856;BME280;17570;0.000;0.000;2023-05-12T05:53:07;97314.22;;;20.23;37.67
30856;BME280;17570;0.000;0.000;2023-05-12T05:55:35;97315.89;;;20.24;37.20
30856;BME280;17570;0.000;0.000;2023-05-12T05:58:02;97316.86;;;20.23;37.83
30856;BME280;17570;0.000;0.000;2023-05-12T06:00:31;97317.82;;;20.30;37.42
30856;BME280;17570;0.000;0.000;2023-05-12T06:02:58;97325.20;;;20.34;37.88
30856;BME280;17570;0.000;0.000;2023-05-12T06:05:27;97323.39;;;20.35;37.13
30856;BME280;17570;0.000;0.000;2023-05-12T06:07:55;97326.84;;;20.35;37.00
30856;BME280;17570;0.000;0.000;2023-05-12T06:10:24;97325.20;;;20.34;37.00
30856;BME280;17570;0.000;0.000;2023-05-12T06:12:51;97326.66;;;20.37;36.39
30856;BME280;17570;0.000;0.000;2023-05-12T06:15:20;97333.22;;;20.41;37.07
30856;BME280;17570;0.000;0.000;2023-05-12T06:17:48;97328.77;;;20.42;37.01
30856;BME280;17570;0.000;0.000;2023-05-12T06:20:16;97337.34;;;20.44;36.47
30856;BME280;17570;0.000;0.000;2023-05-12T06:22:47;97332.39;;;20.49;36.97
30856;BME280;17570;0.000;0.000;2023-05-12T06:25:16;97330.23;;;20.52;36.43
30856;BME280;17570;0.000;0.000;2023-05-12T06:27:44;97333.84;;;20.51;36.71
30856;BME280;17570;0.000;0.000;2023-05-12T06:30:12;97331.97;;;20.60;36.53
30856;BME280;17570;0.000;0.000;2023-05-12T06:32:39;97333.73;;;20.68;36.32
30856;BME280;17570;0.000;0.000;2023-05-12T06:35:07;97335.03;;;20.72;35.51
30856;BME280;17570;0.000;0.000;2023-05-12T06:37:35;97335.42;;;20.83;35.56
30856;BME280;17570;0.000;0.000;2023-05-12T06:40:04;97338.19;;;20.90;35.56
30856;BME280;17570;0.000;0.000;2023-05-12T06:42:32;97326.09;;;20.96;35.53
30856;BME280;17570;0.000;0.000;2023-05-12T06:45:02;97328.01;;;21.02;35.37
30856;BME280;17570;0.000;0.000;2023-05-12T06:47:31;97333.13;;;21.03;34.75
30856;BME280;17570;0.000;0.000;2023-05-12T06:49:59;97335.05;;;21.09;34.63
30856;BME280;17570;0.000;0.000;2023-05-12T06:52:26;97333.16;;;21.18;35.07
30856;BME280;17570;0.000;0.000;2023-05-12T06:54:55;97334.52;;;21.29;35.29
30856;BME280;17570;0.000;0.000;2023-05-12T06:57:24;97332.19;;;21.34;34.59
30856;BME280;17570;0.000;0.000;2023-05-12T06:59:52;97335.48;;;21.36;34.25
30856;BME280;17570;0.000;0.000;2023-05-12T07:02:19;97339.03;;;21.43;33.77
30856;BME280;17570;0.000;0.000;2023-05-12T07:04:47;97340.94;;;21.49;33.64
30856;BME280;17570;0.000;0.000;2023-05-12T07:07:14;97341.23;;;21.54;33.95
30856;BME280;17570;0.000;0.000;2023-05-12T07:09:42;97342.76;;;21.63;34.25
30856;BME280;17570;0.000;0.000;2023-05-12T07:12:10;97341.75;;;21.94;34.29
30856;BME280;17570;0.000;0.000;2023-05-12T07:14:38;97335.36;;;22.03;34.27
30856;BME280;17570;0.000;0.000;2023-05-12T07:17:05;97332.78;;;22.10;34.26
30856;BME280;17570;0.000;0.000;2023-05-12T07:19:33;97334.73;;;22.16;33.75
30856;BME280;17570;0.000;0.000;2023-05-12T07:22:00;97339.47;;;22.21;33.76
30856;BME280;17570;0.000;0.000;2023-05-12T07:24:29;97340.09;;;22.23;34.22
30856;BME280;17570;0.000;0.000;2023-05-12T07:27:00;97336.88;;;22.27;33.38
30856;BME280;17570;0.000;0.000;2023-05-12T07:29:30;97336.69;;;22.29;33.13
30856;BME280;17570;0.000;0.000;2023-05-12T07:31:59;97338.61;;;22.35;33.76
30856;BME280;17570;0.000;0.000;2023-05-12T07:34:28;97340.69;;;22.39;33.41
30856;BME280;17570;0.000;0.000;2023-05-12T07:36:55;97339.48;;;22.42;32.62
30856;BME280;17570;0.000;0.000;2023-05-12T07:39:24;97342.77;;;22.44;33.06
30856;BME280;17570;0.000;0.000;2023-05-12T07:41:52;97337.73;;;22.49;32.88
30856;BME280;17570;0.000;0.000;2023-05-12T07:44:22;97342.83;;;22.51;32.73
30856;BME280;17570;0.000;0.000;2023-05-12T07:46:52;97336.97;;;22.55;32.34
30856;BME280;17570;0.000;0.000;2023-05-12T07:49:20;97342.91;;;22.57;32.77
30856;BME280;17570;0.000;0.000;2023-05-12T07:51:48;97343.33;;;22.61;32.40
30856;BME280;17570;0.000;0.000;2023-05-12T07:54:16;97347.25;;;22.65;31.76
30856;BME280;17570;0.000;0.000;2023-05-12T07:56:43;97339.19;;;22.73;31.17
30856;BME280;17570;0.000;0.000;2023-05-12T07:59:11;97336.79;;;22.78;31.41
30856;BME280;17570;0.000;0.000;2023-05-12T08:01:39;97343.42;;;22.89;31.58
30856;BME280;17570;0.000;0.000;2023-05-12T08:04:07;97341.66;;;22.96;31.37
30856;BME280;17570;0.000;0.000;2023-05-12T08:06:34;97344.19;;;23.04;31.37
30856;BME280;17570;0.000;0.000;2023-05-12T08:09:02;97345.04;;;23.11;31.34
30856;BME280;17570;0.000;0.000;2023-05-12T08:11:29;97353.30;;;23.23;31.45
30856;BME280;17570;0.000;0.000;2023-05-12T08:13:57;97348.67;;;23.32;31.81
30856;BME280;17570;0.000;0.000;2023-05-12T08:16:24;97337.73;;;23.41;31.13
30856;BME280;17570;0.000;0.000;2023-05-12T08:18:51;97337.38;;;23.51;31.25
30856;BME280;17570;0.000;0.000;2023-05-12T08:21:19;97337.41;;;23.58;31.22
30856;BME280;17570;0.000;0.000;2023-05-12T08:23:46;97335.33;;;23.81;31.50
30856;BME280;17570;0.000;0.000;2023-05-12T08:26:14;97336.64;;;23.99;30.63
30856;BME280;17570;0.000;0.000;2023-05-12T08:28:41;97333.41;;;24.10;30.61
30856;BME280;17570;0.000;0.000;2023-05-12T08:31:09;97333.84;;;24.20;29.32
30856;BME280;17570;0.000;0.000;2023-05-12T08:33:36;97337.56;;;24.26;29.23
30856;BME280;17570;0.000;0.000;2023-05-12T08:36:04;97331.66;;;24.30;29.39
30856;BME280;17570;0.000;0.000;2023-05-12T08:38:31;97332.51;;;24.37;29.54
30856;BME280;17570;0.000;0.000;2023-05-12T08:41:15;97332.11;;;24.40;29.24
30856;BME280;17570;0.000;0.000;2023-05-12T08:46:10;97329.07;;;24.43;29.10
30856;BME280;17570;0.000;0.000;2023-05-12T08:48:38;97334.98;;;24.52;29.23
30856;BME280;17570;0.000;0.000;2023-05-12T08:51:07;97332.78;;;24.62;29.05
30856;BME280;17570;0.000;0.000;2023-05-12T08:53:39;97331.33;;;24.66;29.32
30856;BME280;17570;0.000;0.000;2023-05-12T08:56:08;97330.73;;;24.71;29.74
30856;BME280;17570;0.000;0.000;2023-05-12T08:58:36;97335.86;;;24.73;28.82
30856;BME280;17570;0.000;0.000;2023-05-12T09:01:04;97329.30;;;24.75;28.99
30856;BME280;17570;0.000;0.000;2023-05-12T09:03:33;97321.55;;;24.80;28.67
30856;BME280;17570;0.000;0.000;2023-05-12T09:06:01;97331.16;;;24.88;29.65
30856;BME280;17570;0.000;0.000;2023-05-12T09:08:29;97330.77;;;24.91;29.37
30856;BME280;17570;0.000;0.000;2023-05-12T09:11:00;97323.00;;;24.96;29.16
30856;BME280;17570;0.000;0.000;2023-05-12T09:13:38;97318.11;;;25.00;28.85
30856;BME280;17570;0.000;0.000;2023-05-12T09:16:06;97330.79;;;25.11;29.11
30856;BME280;17570;0.000;0.000;2023-05-12T09:18:51;97324.45;;;25.12;28.59
30856;BME280;17570;0.000;0.000;2023-05-12T09:21:19;97317.87;;;25.41;29.07
30856;BME280;17570;0.000;0.000;2023-05-12T09:23:53;97323.19;;;25.48;28.45
30856;BME280;17570;0.000;0.000;2023-05-12T09:26:21;97316.97;;;25.74;29.02
30856;BME280;17570;0.000;0.000;2023-05-12T09:28:51;97317.22;;;25.79;27.03
30856;BME280;17570;0.000;0.000;2023-05-12T09:31:22;97321.47;;;25.86;26.37
30856;BME280;17570;0.000;0.000;2023-05-12T09:33:50;97316.96;;;25.87;26.00
30856;BME280;17570;0.000;0.000;2023-05-12T09:36:18;97313.08;;;25.83;25.94
30856;BME280;17570;0.000;0.000;2023-05-12T09:38:57;97315.70;;;25.96;27.88
30856;BME280;17570;0.000;0.000;2023-05-12T09:41:21;97318.27;;;26.16;28.11
30856;BME280;17570;0.000;0.000;2023-05-12T09:43:44;97306.17;;;26.20;27.87
30856;BME280;17570;0.000;0.000;2023-05-12T09:46:12;97311.30;;;26.22;27.68
30856;BME280;17570;0.000;0.000;2023-05-12T09:48:40;97316.63;;;26.22;26.54
30856;BME280;17570;0.000;0.000;2023-05-12T09:51:08;97312.30;;;26.20;26.11
30856;BME280;17570;0.000;0.000;2023-05-12T09:53:39;97311.30;;;26.22;25.81
30856;BME280;17570;0.000;0.000;2023-05-12T09:56:09;97315.19;;;26.19;24.92
30856;BME280;17570;0.000;0.000;2023-05-12T09:58:38;97324.42;;;26.16;24.83
30856;BME280;17570;0.000;0.000;2023-05-12T10:01:09;97323.39;;;26.17;24.64
30856;BME280;17570;0.000;0.000;2023-05-12T10:03:36;97314.20;;;26.13;24.96
30856;BME280;17570;0.000;0.000;2023-05-12T10:06:05;97313.97;;;26.15;25.05
30856;BME280;17570;0.000;0.000;2023-05-12T10:08:41;97310.91;;;26.18;24.45
30856;BME280;17570;0.000;0.000;2023-05-12T10:11:03;97307.83;;;26.21;24.42
30856;BME280;17570;0.000;0.000;2023-05-12T10:13:38;97312.92;;;26.23;23.99
30856;BME280;17570;0.000;0.000;2023-05-12T10:16:06;97312.11;;;26.22;23.55
30856;BME280;17570;0.000;0.000;2023-05-12T10:18:34;97312.92;;;26.23;24.34
30856;BME280;17570;0.000;0.000;2023-05-12T10:21:02;97310.04;;;26.24;24.03
30856;BME280;17570;0.000;0.000;2023-05-12T10:23:29;97306.16;;;26.27;23.40
30856;BME280;17570;0.000;0.000;2023-05-12T10:25:57;97307.19;;;26.26;22.95
30856;BME280;17570;0.000;0.000;2023-05-12T10:28:27;97303.91;;;26.24;23.17
30856;BME280;17570;0.000;0.000;2023-05-12T10:30:55;97302.05;;;26.24;23.17
30856;BME280;17570;0.000;0.000;2023-05-12T10:33:23;97303.91;;;26.24;22.71
30856;BME280;17570;0.000;0.000;2023-05-12T10:35:52;97296.54;;;26.26;23.05
30856;BME280;17570;0.000;0.000;2023-05-12T10:38:19;97298.16;;;26.27;22.44
30856;BME280;17570;0.000;0.000;2023-05-12T10:40:50;97287.92;;;26.30;22.46
30856;BME280;17570;0.000;0.000;2023-05-12T10:43:20;97295.67;;;26.32;22.38
30856;BME280;17570;0.000;0.000;2023-05-12T10:46:08;97297.77;;;26.23;22.29
30856;BME280;17570;0.000;0.000;2023-05-12T10:49:19;97296.34;;;26.20;21.81
30856;BME280;17570;0.000;0.000;2023-05-12T10:51:10;97286.42;;;26.03;22.40
30856;BME280;17570;0.000;0.000;2023-05-12T10:53:38;97297.48;;;26.00;22.66
30856;BME280;17570;0.000;0.000;2023-05-12T10:56:05;97298.69;;;26.04;22.81
30856;BME280;17570;0.000;0.000;2023-05-12T10:58:34;97293.78;;;26.01;23.10
30856;BME280;17570;0.000;0.000;2023-05-12T11:01:04;97296.89;;;25.98;23.28
30856;BME280;17570;0.000;0.000;2023-05-12T11:03:33;97290.94;;;25.95;23.73
30856;BME280;17570;0.000;0.000;2023-05-12T11:06:01;97293.02;;;25.93;24.03
30856;BME280;17570;0.000;0.000;2023-05-12T11:08:29;97297.43;;;26.06;24.74
30856;BME280;17570;0.000;0.000;2023-05-12T11:11:00;97292.11;;;26.06;23.48
30856;BME280;17570;0.000;0.000;2023-05-12T11:13:28;97289.27;;;26.01;23.82
30856;BME280;17570;0.000;0.000;2023-05-12T11:15:55;97297.48;;;26.00;23.76
30856;BME280;17570;0.000;0.000;2023-05-12T11:18:23;97288.69;;;25.99;24.19
30856;BME280;17570;0.000;0.000;2023-05-12T11:20:51;97290.53;;;25.99;22.88
30856;BME280;17570;0.000;0.000;2023-05-12T11:23:25;97291.56;;;25.98;23.99
30856;BME280;17570;0.000;0.000;2023-05-12T11:25:54;97288.91;;;25.98;23.43
30856;BME280;17570;0.000;0.000;2023-05-12T11:28:22;97294.64;;;25.94;22.56
30856;BME280;17570;0.000;0.000;2023-05-12T11:30:50;97288.50;;;25.94;22.33
30856;BME280;17570;0.000;0.000;2023-05-12T11:33:20;97288.50;;;25.94;23.72
30856;BME280;17570;0.000;0.000;2023-05-12T11:35:48;97285.22;;;25.92;22.57
30856;BME280;17570;0.000;0.000;2023-05-12T11:38:16;97282.56;;;25.92;23.92
30856;BME280;17570;0.000;0.000;2023-05-12T11:40:44;97282.56;;;25.92;23.28
30856;BME280;17570;0.000;0.000;2023-05-12T11:43:11;97274.17;;;25.95;22.86
30856;BME280;17570;0.000;0.000;2023-05-12T11:45:40;97285.21;;;25.99;22.63
30856;BME280;17570;0.000;0.000;2023-05-12T11:48:08;97286.61;;;26.01;22.03
30856;BME280;17570;0.000;0.000;2023-05-12T11:50:40;97292.55;;;26.03;22.98
30856;BME280;17570;0.000;0.000;2023-05-12T11:53:19;97288.86;;;26.04;22.47
30856;BME280;17570;0.000;0.000;2023-05-12T11:55:47;97293.14;;;26.05;22.06
30856;BME280;17570;0.000;0.000;2023-05-12T11:58:19;97290.09;;;26.02;21.96
30856;BME280;17570;0.000;0.000;2023-05-12T12:00:47;97298.69;;;26.04;21.12
30856;BME280;17570;0.000;0.000;2023-05-12T12:03:15;97294.77;;;26.06;22.57
30856;BME280;17570;0.000;0.000;2023-05-12T12:05:43;97291.70;;;26.09;22.26
30856;BME280;17570;0.000;0.000;2023-05-12T12:08:12;97291.28;;;26.12;21.69
30856;BME280;17570;0.000;0.000;2023-05-12T12:10:43;97296.16;;;26.15;22.46
30856;BME280;17570;0.000;0.000;2023-05-12T12:13:11;97299.63;;;26.16;21.81
30856;BME280;17570;0.000;0.000;2023-05-12T12:15:39;97294.93;;;26.18;21.76
30856;BME280;17570;0.000;0.000;2023-05-12T12:18:07;97290.01;;;26.22;22.01
30856;BME280;17570;0.000;0.000;2023-05-12T12:20:35;97291.80;;;26.28;22.28
30856;BME280;17570;0.000;0.000;2023-05-12T12:23:02;97298.56;;;26.30;21.40
30856;BME280;17570;0.000;0.000;2023-05-12T12:25:30;97295.27;;;26.35;22.00
30856;BME280;17570;0.000;0.000;2023-05-12T12:27:57;97281.73;;;26.36;21.49
30856;BME280;17570;0.000;0.000;2023-05-12T12:30:25;97284.78;;;26.40;21.66
30856;BME280;17570;0.000;0.000;2023-05-12T12:32:53;97287.22;;;26.41;21.82
30856;BME280;17570;0.000;0.000;2023-05-12T12:35:21;97278.63;;;26.46;22.67
30856;BME280;17570;0.000;0.000;2023-05-12T12:37:49;97282.66;;;26.55;22.73
30856;BME280;17570;0.000;0.000;2023-05-12T12:40:17;97284.03;;;26.64;23.64
30856;BME280;17570;0.000;0.000;2023-05-12T12:42:45;97283.55;;;26.74;23.83
30856;BME280;17570;0.000;0.000;2023-05-12T12:45:13;97281.81;;;26.86;24.90
30856;BME280;17570;0.000;0.000;2023-05-12T12:47:40;97273.48;;;27.01;25.29
30856;BME280;17570;0.000;0.000;2023-05-12T12:50:08;97278.42;;;27.23;25.01
30856;BME280;17570;0.000;0.000;2023-05-12T12:52:36;97272.25;;;27.47;25.23
30856;BME280;17570;0.000;0.000;2023-05-12T13:00:15;97262.57;;;28.61;25.17
30856;BME280;17570;0.000;0.000;2023-05-12T13:02:43;97254.01;;;28.94;25.54
30856;BME280;17570;0.000;0.000;2023-05-12T13:05:10;97252.39;;;29.40;25.64
30856;BME280;17570;0.000;0.000;2023-05-12T13:07:38;97256.05;;;29.86;26.02
30856;BME280;17570;0.000;0.000;2023-05-12T13:10:06;97254.30;;;30.20;24.46
30856;BME280;17570;0.000;0.000;2023-05-12T13:12:33;97246.14;;;30.44;23.83
30856;BME280;17570;0.000;0.000;2023-05-12T13:15:01;97250.13;;;30.58;23.21
30856;BME280;17570;0.000;0.000;2023-05-12T13:17:28;97253.00;;;30.68;22.88
30856;BME280;17570;0.000;0.000;2023-05-12T13:44:36;97253.98;;;25.81;22.50
30856;BME280;17570;0.000;0.000;2023-05-12T13:47:04;97260.59;;;26.98;21.25
30856;BME280;17570;0.000;0.000;2023-05-12T13:49:34;97253.12;;;28.35;19.36